Time;durP1;ratioP1;P1;durP2;ratioP2;P2;SDS_P1;SDS_P2;PMS_P1;PMS_P2;Temp;Humidity;BMP_temperature;BMP_pressure;BME280_temperature;BME280_humidity;BME280_pressure;Samples;Min_cycle;Max_cycle;Signal;HPM_P1;HPM_P2
2023/01/11 00:01:57;;;;;;;26.30;19.13;;;;;;;;;;5027242;28;20091;-74
2023/01/11 00:04:28;;;;;;;26.70;18.73;;;;;;;;;;5028860;28;20049;-74
2023/01/11 00:06:55;;;;;;;29.92;21.73;;;;;;;;;;5021494;28;20655;-74
2023/01/11 00:09:21;;;;;;;31.58;21.35;;;;;;;;;;5030357;28;20045;-75
2023/01/11 00:11:47;;;;;;;23.00;17.98;;;;;;;;;;5029524;28;20098;-75
2023/01/11 00:14:14;;;;;;;28.25;19.77;;;;;;;;;;5027473;28;20033;-75
2023/01/11 00:16:40;;;;;;;29.70;20.85;;;;;;;;;;5030258;28;20083;-74
2023/01/11 00:19:06;;;;;;;26.02;18.10;;;;;;;;;;5043682;28;20054;-74
2023/01/11 00:21:32;;;;;;;25.15;18.73;;;;;;;;;;5011107;28;20395;-74
2023/01/11 00:23:58;;;;;;;23.17;16.95;;;;;;;;;;5050407;28;20049;-74
2023/01/11 00:26:24;;;;;;;23.35;17.30;;;;;;;;;;5026664;28;20044;-75
2023/01/11 00:28:51;;;;;;;14.40;12.68;;;;;;;;;;5029326;28;20049;-75
2023/01/11 00:31:17;;;;;;;21.55;14.77;;;;;;;;;;5023310;28;20137;-75
2023/01/11 00:33:43;;;;;;;23.95;15.52;;;;;;;;;;5029354;28;20484;-75
2023/01/11 00:36:09;;;;;;;26.10;13.77;;;;;;;;;;5029450;28;20037;-75
2023/01/11 00:38:52;;;;;;;23.35;14.38;;;;;;;;;;5031253;28;20065;-75
2023/01/11 00:49:34;;;;;;;18.67;7.13;;;10.70;99.90;;;;;;5026094;28;20045;-74
2023/01/11 00:52:00;;;;;;;16.98;8.45;;;10.90;99.90;;;;;;5026085;28;20041;-74
2023/01/11 00:54:26;;;;;;;17.33;7.20;;;11.00;99.90;;;;;;5021362;28;20110;-74
2023/01/11 00:56:51;;;;;;;15.73;7.00;;;11.10;99.90;;;;;;5028968;28;20069;-74
2023/01/11 00:59:17;;;;;;;22.75;7.70;;;11.20;99.90;;;;;;5025641;28;20080;-74
2023/01/11 01:01:43;;;;;;;22.33;7.93;;;11.10;99.90;;;;;;5026597;28;20052;-74
2023/01/11 01:04:09;;;;;;;15.00;7.13;;;;;;;;;;5029756;28;20116;-75
2023/01/11 01:06:35;;;;;;;15.15;6.57;;;13.80;99.90;;;;;;5031042;28;20052;-72
2023/01/11 01:09:01;;;;;;;23.70;6.15;;;12.20;99.90;;;;;;5026783;28;20050;-74
2023/01/11 01:11:26;;;;;;;17.88;6.25;;;10.90;99.90;;;;;;5027525;28;20080;-74
2023/01/11 01:16:36;;;;;;;19.27;6.68;;;11.00;99.90;;;;;;5026374;28;20046;-74
2023/01/11 01:19:02;;;;;;;22.35;6.13;;;11.10;99.90;;;;;;5014386;28;20068;-74
2023/01/11 01:21:29;;;;;;;18.58;6.13;;;10.90;99.90;;;;;;5022393;28;20049;-74
2023/01/11 01:23:55;;;;;;;21.05;6.38;;;11.20;99.90;;;;;;5031389;28;20055;-74
2023/01/11 01:26:21;;;;;;;20.27;6.20;;;10.90;99.90;;;;;;5029915;28;20052;-74
2023/01/11 01:28:46;;;;;;;16.02;5.47;;;11.10;99.90;;;;;;5014744;28;20064;-74
2023/01/11 01:31:13;;;;;;;20.73;6.32;;;11.00;99.90;;;;;;5030098;28;20041;-74
2023/01/11 01:33:39;;;;;;;22.80;5.78;;;10.90;99.90;;;;;;5054065;28;20037;-74
2023/01/11 01:36:05;;;;;;;19.65;5.28;;;11.10;99.90;;;;;;5028478;28;20049;-74
2023/01/11 01:38:31;;;;;;;19.67;5.97;;;;;;;;;;5031303;28;21057;-75
2023/01/11 01:40:57;;;;;;;21.00;5.90;;;;;;;;;;5027824;28;20049;-74
2023/01/11 01:43:24;;;;;;;18.27;6.72;;;;;;;;;;5030373;28;20046;-75
2023/01/11 01:45:51;;;;;;;19.98;5.50;;;;;;;;;;5043391;28;20079;-74
2023/01/11 01:48:22;;;;;;;17.52;5.40;;;;;;;;;;5016438;28;20116;-75
2023/01/11 01:50:50;;;;;;;21.85;6.28;;;;;;;;;;5007268;28;20448;-75
2023/01/11 01:53:20;;;;;;;18.25;5.55;;;;;;;;;;5031483;28;20079;-75
2023/01/11 01:55:49;;;;;;;18.33;5.10;;;;;;;;;;5037656;28;20048;-74
2023/01/11 01:58:17;;;;;;;21.13;5.50;;;;;;;;;;5024615;28;20063;-74
2023/01/11 02:00:44;;;;;;;31.73;6.63;;;;;;;;;;5040295;28;20068;-74
2023/01/11 02:03:13;;;;;;;28.48;6.43;;;;;;;;;;5029083;28;20038;-74
2023/01/11 02:05:39;;;;;;;24.52;5.82;;;;;;;;;;5036118;28;20041;-74
2023/01/11 02:08:08;;;;;;;14.02;4.88;;;;;;;;;;5042978;28;20047;-74
2023/01/11 02:10:34;;;;;;;15.77;4.88;;;;;;;;;;5041060;28;20097;-74
2023/01/11 02:13:02;;;;;;;29.05;6.28;;;;;;;;;;5032815;28;20041;-74
2023/01/11 02:15:28;;;;;;;23.52;5.72;;;;;;;;;;5023764;28;20045;-74
2023/01/11 02:17:54;;;;;;;29.95;6.88;;;;;;;;;;5030963;28;20060;-74
2023/01/11 02:20:39;;;;;;;23.60;6.55;;;;;;;;;;5029998;28;20420;-74
2023/01/11 02:23:07;;;;;;;20.02;6.45;;;;;;;;;;5031786;28;20041;-74
2023/01/11 02:25:46;;;;;;;24.45;6.38;;;;;;;;;;5059413;28;20088;-74
2023/01/11 02:28:15;;;;;;;30.15;6.07;;;;;;;;;;5039985;28;20071;-74
2023/01/11 02:31:04;;;;;;;30.13;7.38;;;;;;;;;;5033937;28;20041;-74
2023/01/11 02:33:30;;;;;;;26.38;6.50;;;;;;;;;;5026024;28;20073;-74
2023/01/11 02:35:56;;;;;;;32.70;7.20;;;;;;;;;;5056201;28;20077;-74
2023/01/11 02:38:22;;;;;;;26.88;5.85;;;;;;;;;;5039617;28;20140;-75
2023/01/11 02:40:51;;;;;;;22.73;6.18;;;;;;;;;;5050316;28;20064;-74
2023/01/11 02:46:08;;;;;;;28.67;6.68;;;;;;;;;;5031969;28;20053;-74
2023/01/11 02:48:52;;;;;;;32.00;6.43;;;;;;;;;;5037649;28;20139;-74
2023/01/11 02:51:21;;;;;;;30.02;6.22;;;;;;;;;;5041513;28;20545;-74
2023/01/11 02:53:50;;;;;;;34.05;6.90;;;;;;;;;;5041266;28;20045;-74
2023/01/11 02:56:19;;;;;;;39.20;7.38;;;;;;;;;;5060895;28;20069;-75
2023/01/11 02:58:46;;;;;;;33.28;7.47;;;;;;;;;;5032057;28;20038;-74
2023/01/11 03:01:12;;;;;;;37.10;7.18;;;;;;;;;;5028223;28;20644;-74
2023/01/11 03:03:38;;;;;;;31.17;7.47;;;;;;;;;;5033450;28;20551;-74
2023/01/11 03:06:10;;;;;;;25.92;6.18;;;;;;;;;;5033163;28;20045;-74
2023/01/11 03:08:52;;;;;;;25.80;6.80;;;;;;;;;;5028421;28;20041;-74
2023/01/11 03:12:50;;;;;;;36.35;8.60;;;;;;;;;;5029480;28;20051;-74
2023/01/11 03:14:19;;;;;;;40.22;7.97;;;;;;;;;;5033710;28;20092;-74
2023/01/11 03:17:02;;;;;;;40.28;8.18;;;;;;;;;;5024745;28;20457;-74
2023/01/11 03:19:39;;;;;;;38.22;9.57;;;;;;;;;;5031522;28;20057;-74
2023/01/11 03:22:08;;;;;;;41.70;7.20;;;;;;;;;;5037080;28;20045;-74
2023/01/11 03:25:01;;;;;;;32.97;7.13;;;;;;;;;;5027256;28;20049;-74
2023/01/11 03:27:37;;;;;;;35.03;7.22;;;;;;;;;;5029441;28;20075;-74
2023/01/11 03:30:07;;;;;;;35.85;7.72;;;;;;;;;;5014316;28;20741;-74
2023/01/11 03:32:52;;;;;;;36.88;8.25;;;;;;;;;;5046755;28;20045;-74
2023/01/11 03:35:21;;;;;;;34.50;7.55;;;;;;;;;;5019434;28;20037;-74
2023/01/11 03:37:53;;;;;;;30.60;7.93;;;;;;;;;;5025277;28;20076;-74
2023/01/11 03:40:40;;;;;;;40.65;8.10;;;;;;;;;;5012434;28;20050;-74
2023/01/11 03:43:12;;;;;;;40.65;7.35;;;;;;;;;;5030900;28;20041;-74
2023/01/11 03:45:56;;;;;;;35.58;7.75;;;;;;;;;;5008526;28;20046;-74
2023/01/11 03:48:38;;;;;;;28.73;7.10;;;;;;;;;;5020061;28;20056;-74
2023/01/11 03:51:08;;;;;;;26.90;7.18;;;;;;;;;;5031427;28;20080;-74
2023/01/11 03:53:35;;;;;;;33.17;6.65;;;;;;;;;;5028294;28;20384;-73
2023/01/11 03:56:02;;;;;;;26.75;5.85;;;;;;;;;;5032806;28;20126;-74
2023/01/11 03:58:29;;;;;;;30.88;6.32;;;;;;;;;;5030377;28;20128;-74
2023/01/11 04:00:55;;;;;;;23.92;5.15;;;;;;;;;;5028615;28;20045;-74
2023/01/11 04:03:22;;;;;;;19.50;4.85;;;;;;;;;;5029122;28;20092;-74
2023/01/11 04:05:51;;;;;;;27.67;5.78;;;;;;;;;;5030019;28;20058;-74
2023/01/11 04:08:17;;;;;;;30.05;5.63;;;;;;;;;;5026757;28;20049;-74
2023/01/11 04:10:44;;;;;;;31.42;7.13;;;;;;;;;;5038774;28;20099;-74
2023/01/11 04:13:10;;;;;;;29.67;6.78;;;;;;;;;;5029758;28;20052;-73
2023/01/11 04:15:36;;;;;;;30.95;6.78;;;;;;;;;;5034893;28;20125;-74
2023/01/11 04:18:04;;;;;;;28.38;6.65;;;;;;;;;;5037104;28;20049;-74
2023/01/11 04:20:34;;;;;;;28.77;6.93;;;;;;;;;;5031322;28;20496;-74
2023/01/11 04:23:00;;;;;;;31.52;6.88;;;;;;;;;;5030822;28;20092;-74
2023/01/11 04:25:26;;;;;;;35.30;6.03;;;;;;;;;;5032924;28;20049;-73
2023/01/11 04:27:52;;;;;;;30.73;6.45;;;;;;;;;;5027899;28;20489;-74
2023/01/11 04:30:18;;;;;;;28.40;5.78;;;;;;;;;;5064288;28;20042;-74
2023/01/11 04:32:44;;;;;;;32.63;6.22;;;;;;;;;;5048428;28;20041;-74
2023/01/11 04:35:10;;;;;;;24.92;5.88;;;;;;;;;;5044746;28;20037;-73
2023/01/11 04:37:36;;;;;;;23.88;5.93;;;;;;;;;;5045282;28;20477;-74
2023/01/11 04:40:02;;;;;;;28.05;6.00;;;;;;;;;;5060008;28;20030;-74
2023/01/11 04:42:28;;;;;;;22.27;5.28;;;;;;;;;;5028412;28;20251;-73
2023/01/11 04:44:54;;;;;;;24.25;5.20;;;;;;;;;;5029454;28;20082;-74
2023/01/11 04:47:21;;;;;;;21.38;4.32;;;;;;;;;;5040315;28;20476;-74
2023/01/11 04:49:48;;;;;;;15.50;3.67;;;;;;;;;;5039053;28;20175;-73
2023/01/11 04:52:14;;;;;;;14.60;4.38;;;;;;;;;;5026749;28;20091;-74
2023/01/11 04:54:41;;;;;;;16.50;4.28;;;;;;;;;;5034734;28;20046;-74
2023/01/11 04:57:08;;;;;;;13.40;3.50;;;;;;;;;;5028704;28;20462;-74
2023/01/11 04:59:34;;;;;;;13.98;3.42;;;;;;;;;;5028863;28;20048;-74
2023/01/11 05:02:00;;;;;;;11.63;4.32;;;;;;;;;;5027187;28;20033;-73
2023/01/11 05:04:26;;;;;;;14.57;4.03;;;;;;;;;;5045614;28;20366;-74
2023/01/11 05:06:52;;;;;;;16.73;4.80;;;;;;;;;;5046447;28;20073;-74
2023/01/11 05:09:19;;;;;;;14.65;3.72;;;;;;;;;;5041380;28;20087;-74
2023/01/11 05:11:45;;;;;;;18.08;4.20;;;;;;;;;;5049483;28;20128;-73
2023/01/11 05:14:11;;;;;;;20.35;5.57;;;;;;;;;;5024888;28;20428;-73
2023/01/11 05:16:37;;;;;;;25.70;4.75;;;;;;;;;;5028362;28;20045;-73
2023/01/11 05:19:05;;;;;;;29.55;7.32;;;;;;;;;;5034369;28;20053;-74
2023/01/11 05:21:32;;;;;;;32.25;6.20;;;;;;;;;;5035447;28;20499;-74
2023/01/11 05:23:59;;;;;;;36.65;7.80;;;;;;;;;;5041522;28;20045;-73
2023/01/11 05:26:29;;;;;;;40.65;7.38;;;;;;;;;;5033171;28;20159;-73
2023/01/11 05:28:56;;;;;;;33.65;7.95;;;;;;;;;;5029780;28;20060;-73
2023/01/11 05:31:22;;;;;;;31.58;6.55;;;;;;;;;;5032288;28;20083;-74
2023/01/11 05:33:48;;;;;;;35.90;7.00;;;;;;;;;;5025878;28;20132;-73
2023/01/11 05:36:16;;;;;;;33.72;7.35;;;;;;;;;;5036849;28;20132;-74
2023/01/11 05:38:42;;;;;;;31.95;7.38;;;;;;;;;;5018008;28;20584;-74
2023/01/11 05:41:09;;;;;;;28.27;6.28;;;;;;;;;;5021101;28;20053;-74
2023/01/11 05:46:23;;;;;;;24.00;5.22;;;;;;;;;;5028482;28;20037;-74
2023/01/11 05:48:49;;;;;;;21.20;5.03;;;;;;;;;;5029200;28;20132;-74
2023/01/11 05:51:15;;;;;;;19.20;5.40;;;;;;;;;;5030914;28;20037;-73
2023/01/11 05:53:41;;;;;;;19.83;4.82;;;;;;;;;;5019966;28;20048;-74
2023/01/11 05:56:07;;;;;;;21.77;4.70;;;;;;;;;;5021384;28;20037;-74
2023/01/11 05:58:33;;;;;;;16.98;3.83;;;;;;;;;;5036257;28;20060;-74
2023/01/11 06:00:59;;;;;;;18.90;4.30;;;;;;;;;;5027424;28;20041;-73
2023/01/11 06:03:27;;;;;;;15.10;3.47;;;;;;;;;;5028212;28;20045;-73
2023/01/11 06:05:53;;;;;;;14.50;3.83;;;;;;;;;;5036872;28;20481;-74
2023/01/11 06:08:20;;;;;;;13.90;3.60;;;;;;;;;;5032648;28;20052;-74
2023/01/11 06:10:55;;;;;;;13.73;3.80;;;;;;;;;;5036310;28;20037;-74
2023/01/11 06:13:25;;;;;;;17.35;4.90;;;;;;;;;;5032435;28;20488;-73
2023/01/11 06:15:51;;;;;;;18.35;3.83;;;;;;;;;;5054633;28;20053;-73
2023/01/11 06:18:17;;;;;;;20.17;4.72;;;;;;;;;;5019153;28;20466;-74
2023/01/11 06:20:43;;;;;;;31.75;9.07;;;;;;;;;;5045591;28;20073;-73
2023/01/11 06:23:09;;;;;;;21.83;5.28;;;;;;;;;;5055556;28;20052;-74
2023/01/11 06:25:36;;;;;;;50.80;4.80;;;;;;;;;;5030926;28;21545;-74
2023/01/11 06:28:03;;;;;;;20.52;4.88;;;;;;;;;;5026897;28;20053;-74
2023/01/11 06:30:29;;;;;;;13.45;3.65;;;;;;;;;;5028063;28;20107;-73
2023/01/11 06:32:58;;;;;;;27.02;4.75;;;;;;;;;;5032684;28;20045;-74
2023/01/11 06:35:24;;;;;;;17.85;4.43;;;;;;;;;;5041128;28;20485;-73
2023/01/11 06:37:50;;;;;;;14.85;4.53;;;;;;;;;;5029986;28;20050;-74
2023/01/11 06:40:16;;;;;;;21.00;4.63;;;;;;;;;;5031803;28;20041;-74
2023/01/11 06:42:42;;;;;;;19.33;4.03;;;;;;;;;;5031228;28;20045;-74
2023/01/11 06:45:09;;;;;;;18.48;4.20;;;;;;;;;;5027429;28;20092;-74
2023/01/11 06:47:35;;;;;;;17.45;4.55;;;;;;;;;;5030595;28;20067;-73
2023/01/11 06:50:01;;;;;;;15.20;3.88;;;;;;;;;;5027199;28;20595;-73
2023/01/11 06:52:27;;;;;;;20.13;3.65;;;;;;;;;;5028570;28;20049;-74
2023/01/11 06:54:53;;;;;;;17.55;3.70;;;;;;;;;;5020531;28;20076;-74
2023/01/11 06:57:19;;;;;;;20.30;4.47;;;;;;;;;;5028313;28;20539;-74
2023/01/11 06:59:45;;;;;;;13.15;2.88;;;;;;;;;;5020513;28;20050;-74
2023/01/11 07:02:11;;;;;;;10.27;3.08;;;;;;;;;;5031626;28;20392;-73
2023/01/11 07:04:37;;;;;;;17.05;3.67;;;;;;;;;;5029005;28;20436;-74
2023/01/11 07:07:03;;;;;;;10.63;3.17;;;;;;;;;;5027753;28;20037;-73
2023/01/11 07:09:29;;;;;;;12.98;4.03;;;;;;;;;;5012519;28;20050;-73
2023/01/11 07:11:55;;;;;;;15.93;3.33;;;;;;;;;;5015583;28;20065;-73
2023/01/11 07:14:21;;;;;;;14.27;3.38;;;;;;;;;;5035042;28;20046;-74
2023/01/11 07:16:47;;;;;;;11.38;3.67;;;;;;;;;;5034391;28;20091;-74
2023/01/11 07:19:13;;;;;;;12.63;3.88;;;;;;;;;;5034161;28;20461;-74
2023/01/11 07:21:39;;;;;;;13.90;4.32;;;;;;;;;;5035582;28;20095;-74
2023/01/11 07:24:05;;;;;;;14.25;3.05;;;;;;;;;;5048900;28;20446;-74
2023/01/11 07:26:32;;;;;;;12.65;3.92;;;;;;;;;;5041035;28;20042;-74
2023/01/11 07:28:58;;;;;;;16.52;3.47;;;;;;;;;;5030091;28;20056;-74
2023/01/11 07:31:24;;;;;;;12.95;3.85;;;;;;;;;;5028757;28;20044;-74
2023/01/11 07:33:50;;;;;;;12.95;3.33;;;;;;;;;;5020274;28;20065;-75
2023/01/11 07:36:16;;;;;;;11.50;3.33;;;;;;;;;;5029924;28;20555;-75
2023/01/11 07:38:42;;;;;;;16.00;4.32;;;;;;;;;;5032352;28;20049;-75
2023/01/11 07:43:53;;;;;;;17.58;4.03;;;;;;;;;;5033513;28;20045;-74
2023/01/11 07:46:19;;;;;;;14.43;3.60;;;;;;;;;;5038052;28;20052;-75
2023/01/11 07:48:45;;;;;;;14.55;3.53;;;;;;;;;;5040858;28;20053;-75
2023/01/11 07:51:12;;;;;;;14.55;3.55;;;;;;;;;;5043048;28;20041;-74
2023/01/11 07:53:38;;;;;;;17.67;4.32;;;;;;;;;;5020687;28;20054;-75
2023/01/11 07:56:04;;;;;;;10.07;3.60;;;;;;;;;;5035587;28;20056;-74
2023/01/11 07:58:31;;;;;;;20.10;4.18;;;;;;;;;;5029536;28;20094;-75
2023/01/11 08:00:59;;;;;;;14.20;3.78;;;;;;;;;;5035899;28;20041;-76
2023/01/11 08:03:25;;;;;;;12.73;4.03;;;;;;;;;;5035985;28;20073;-76
2023/01/11 08:05:51;;;;;;;12.00;3.17;;;;;;;;;;5047600;28;20044;-73
2023/01/11 08:08:17;;;;;;;16.85;3.65;;;;;;;;;;5032190;28;20127;-76
2023/01/11 08:10:43;;;;;;;14.57;3.53;;;;;;;;;;5026904;28;20178;-76
2023/01/11 08:15:57;;;;;;;9.15;3.20;;;;;;;;;;5045522;28;20053;-75
2023/01/11 08:18:23;;;;;;;16.27;3.97;;;;;;;;;;5029552;28;20054;-76
2023/01/11 08:20:51;;;;;;;11.45;3.60;;;;;;;;;;5041653;28;20056;-76
2023/01/11 08:23:18;;;;;;;10.65;3.30;;;;;;;;;;5031225;28;20104;-76
2023/01/11 08:25:47;;;;;;;17.23;4.03;;;;;;;;;;5021140;28;20054;-76
2023/01/11 08:28:13;;;;;;;14.52;4.00;;;;;;;;;;5038318;28;20052;-76
2023/01/11 08:30:39;;;;;;;16.25;3.55;;;;;;;;;;5047874;28;20044;-76
2023/01/11 08:33:05;;;;;;;13.27;3.53;;;;;;;;;;5025990;28;20101;-75
2023/01/11 08:35:32;;;;;;;11.60;3.28;;;;;;;;;;5041519;28;20385;-75
2023/01/11 08:37:58;;;;;;;10.77;3.22;;;;;;;;;;5033914;28;20219;-75
2023/01/11 08:40:24;;;;;;;14.35;3.33;;;;;;;;;;5024904;28;20088;-75
2023/01/11 08:42:55;;;;;;;9.65;3.00;;;;;;;;;;5039158;28;20420;-76
2023/01/11 08:45:21;;;;;;;13.27;3.30;;;;;;;;;;5030152;28;20046;-76
2023/01/11 08:47:49;;;;;;;18.58;3.45;;;;;;;;;;5029031;28;20488;-76
2023/01/11 08:50:16;;;;;;;13.55;3.55;;;;;;;;;;5041030;28;20072;-75
2023/01/11 08:52:42;;;;;;;19.58;3.85;;;;;;;;;;5029805;28;20051;-75
2023/01/11 08:55:08;;;;;;;13.43;4.07;;;;;;;;;;5018427;28;20046;-76
2023/01/11 08:57:35;;;;;;;14.73;3.92;;;;;;;;;;5024318;28;20481;-75
2023/01/11 09:00:02;;;;;;;13.40;3.33;;;;;;;;;;5022659;28;20128;-75
2023/01/11 09:02:28;;;;;;;13.90;3.50;;;;;;;;;;5032586;28;20069;-76
2023/01/11 09:04:54;;;;;;;13.88;3.53;;;;;;;;;;5026961;28;20069;-75
2023/01/11 09:07:20;;;;;;;11.38;3.47;;;;;;;;;;5033957;28;20041;-75
2023/01/11 09:09:46;;;;;;;14.00;3.67;;;;;;;;;;5021033;28;20049;-76
2023/01/11 09:12:13;;;;;;;13.38;3.13;;;;;;;;;;5010320;28;20117;-75
2023/01/11 09:14:40;;;;;;;14.05;3.05;;;;;;;;;;5031320;28;20475;-76
2023/01/11 09:17:06;;;;;;;14.55;3.90;;;;;;;;;;5044683;28;20057;-75
2023/01/11 09:19:33;;;;;;;13.48;3.25;;;;;;;;;;5034469;28;20476;-74
2023/01/11 09:22:01;;;;;;;17.60;3.42;;;;;;;;;;5033372;28;20056;-74
2023/01/11 09:24:28;;;;;;;15.10;3.85;;;;;;;;;;5023923;28;20069;-75
2023/01/11 09:26:56;;;;;;;11.45;3.38;;;;;;;;;;5022266;28;20052;-74
2023/01/11 09:29:22;;;;;;;13.85;3.63;;;;;;;;;;5024783;28;20045;-75
2023/01/11 09:31:48;;;;;;;18.98;3.70;;;;;;;;;;5029985;28;20052;-75
2023/01/11 09:34:14;;;;;;;17.13;3.55;;;;;;;;;;5027130;28;20045;-75
2023/01/11 09:36:41;;;;;;;18.55;4.30;;;;;;;;;;5027924;28;20037;-75
2023/01/11 09:39:11;;;;;;;19.98;4.03;;;;;;;;;;5031401;28;20048;-75
2023/01/11 09:41:40;;;;;;;11.55;4.07;;;;;;;;;;5032266;28;20405;-75
2023/01/11 09:44:15;;;;;;;24.05;4.60;;;;;;;;;;5027343;28;20041;-75
2023/01/11 09:46:42;;;;;;;18.45;4.40;;;;;;;;;;5028664;28;20089;-75
2023/01/11 09:49:13;;;;;;;16.33;4.07;;;;;;;;;;5028654;28;20497;-75
2023/01/11 09:51:40;;;;;;;19.73;5.00;;;;;;;;;;5030103;28;20051;-75
2023/01/11 09:54:09;;;;;;;19.13;4.88;;;;;;;;;;5026757;28;20116;-76
2023/01/11 09:56:42;;;;;;;26.00;4.57;;;;;;;;;;5027667;28;20045;-75
2023/01/11 09:59:19;;;;;;;16.23;4.05;;;;;;;;;;5030773;28;20614;-75
2023/01/11 10:01:52;;;;;;;19.17;4.65;;;;;;;;;;5032311;28;20408;-75
2023/01/11 10:04:25;;;;;;;19.80;4.63;;;;;;;;;;5028124;28;20041;-75
2023/01/11 10:06:54;;;;;;;20.27;4.43;;;;;;;;;;5023862;28;20050;-75
2023/01/11 10:09:23;;;;;;;22.75;5.30;;;;;;;;;;5030262;28;20037;-75
2023/01/11 10:12:10;;;;;;;24.20;4.72;;;;;;;;;;5030030;28;20451;-76
2023/01/11 10:14:56;;;;;;;22.27;4.82;;;;;;;;;;5026325;28;20056;-75
2023/01/11 10:17:29;;;;;;;20.25;4.13;;;;;;;;;;5022768;28;20137;-75
2023/01/11 10:20:00;;;;;;;19.27;4.78;;;;;;;;;;5028752;28;20366;-75
2023/01/11 10:22:32;;;;;;;18.08;4.53;;;;;;;;;;5028005;28;20508;-75
2023/01/11 10:25:09;;;;;;;15.77;4.25;;;;;;;;;;5028590;28;20096;-75
2023/01/11 10:27:39;;;;;;;18.75;5.07;;;;;;;;;;5017292;28;20625;-75
2023/01/11 10:30:22;;;;;;;20.65;5.47;;;;;;;;;;5022085;28;20068;-75
2023/01/11 10:33:00;;;;;;;16.75;4.93;;;;;;;;;;5028457;28;20263;-75
2023/01/11 10:35:57;;;;;;;17.98;4.15;;;;;;;;;;5024967;28;20401;-75
2023/01/11 10:38:53;;;;;;;19.15;4.55;;;;;;;;;;5038540;28;20052;-75
2023/01/11 10:41:37;;;;;;;17.08;4.38;;;;;;;;;;5018897;28;20049;-76
2023/01/11 10:44:09;;;;;;;19.90;4.88;;;;;;;;;;5023536;28;20405;-75
2023/01/11 10:46:43;;;;;;;19.02;5.00;;;;;;;;;;5024349;28;20124;-76
2023/01/11 10:49:25;;;;;;;23.20;4.43;;;;;;;;;;5030820;28;20127;-75
2023/01/11 10:51:52;;;;;;;23.42;5.57;;;;;;;;;;5029398;28;20037;-74
2023/01/11 10:54:32;;;;;;;18.13;4.72;;;;;;;;;;5024458;28;20092;-75
2023/01/11 10:57:17;;;;;;;16.95;4.45;;;;;;;;;;5026599;28;20116;-75
2023/01/11 10:59:49;;;;;;;20.98;4.80;;;;;;;;;;5032630;28;20056;-75
2023/01/11 11:02:18;;;;;;;24.57;5.27;;;;;;;;;;5030055;28;20049;-75
2023/01/11 11:05:04;;;;;;;24.45;5.93;;;;;;;;;;5026269;28;20324;-75
2023/01/11 11:07:34;;;;;;;19.52;4.82;;;;;;;;;;5022853;28;20050;-74
2023/01/11 11:10:03;;;;;;;20.33;4.93;;;;;;;;;;5026234;28;20091;-74
2023/01/11 11:12:31;;;;;;;20.05;4.45;;;;;;;;;;5025800;28;20431;-74
2023/01/11 11:14:57;;;;;;;18.52;4.22;;;;;;;;;;5024530;28;20489;-73
2023/01/11 11:17:25;;;;;;;18.88;4.28;;;;;;;;;;5024453;28;20053;-73
2023/01/11 11:19:52;;;;;;;24.45;4.50;;;;;;;;;;5021901;28;20050;-72
2023/01/11 11:22:19;;;;;;;17.35;4.47;;;;;;;;;;5024978;28;20808;-73
2023/01/11 11:24:45;;;;;;;22.23;4.53;;;;;;;;;;5006004;28;20044;-73
2023/01/11 11:27:14;;;;;;;17.73;5.68;;;;;;;;;;5016217;28;20045;-74
2023/01/11 11:29:48;;;;;;;20.15;5.25;;;;;;;;;;5022576;28;20455;-74
2023/01/11 11:32:24;;;;;;;21.00;5.10;;;;;;;;;;5021659;28;20049;-74
2023/01/11 11:34:50;;;;;;;16.90;4.15;;;;;;;;;;5016693;28;20061;-74
2023/01/11 11:37:20;;;;;;;22.92;4.55;;;;;;;;;;5027334;28;20082;-74
2023/01/11 11:39:48;;;;;;;18.63;4.50;;;;;;;;;;5022234;28;20080;-74
2023/01/11 11:42:16;;;;;;;20.02;4.78;;;;;;;;;;5027855;28;20037;-73
2023/01/11 11:44:42;;;;;;;17.10;4.55;;;;;;;;;;5020176;28;20083;-74
2023/01/11 11:47:15;;;;;;;19.30;4.40;;;;;;;;;;5026331;28;20179;-74
2023/01/11 11:49:42;;;;;;;18.83;4.13;;;;;;;;;;5020169;28;20037;-73
2023/01/11 11:52:16;;;;;;;15.10;4.00;;;;;;;;;;5021252;28;20045;-74
2023/01/11 11:54:51;;;;;;;16.20;4.55;;;;;;;;;;5024211;28;20045;-73
2023/01/11 11:57:26;;;;;;;18.70;4.38;;;;;;;;;;5027349;28;20045;-73
2023/01/11 12:00:04;;;;;;;22.70;5.10;;;;;;;;;;5023057;28;20069;-74
2023/01/11 12:02:31;;;;;;;18.83;5.07;;;;;;;;;;5020813;28;20042;-74
2023/01/11 12:04:58;;;;;;;22.35;5.72;;;;;;;;;;5011591;28;20522;-74
2023/01/11 12:07:31;;;;;;;17.77;4.95;;;;;;;;;;5024607;28;20033;-74
2023/01/11 12:09:57;;;;;;;25.38;5.85;;;;;;;;;;5031183;28;20512;-73
2023/01/11 12:12:23;;;;;;;22.55;4.53;;;;;;;;;;5030465;28;20068;-74
2023/01/11 12:15:07;;;;;;;23.92;5.22;;;;;;;;;;5031002;28;20046;-74
2023/01/11 12:17:34;;;;;;;25.35;4.88;;;;;;;;;;5032716;28;20087;-74
2023/01/11 12:20:00;;;;;;;24.05;5.20;;;;;;;;;;5039263;28;20069;-74
2023/01/11 12:22:36;;;;;;;26.45;4.90;;;;;;;;;;5030064;28;20049;-74
2023/01/11 12:25:04;;;;;;;27.83;6.70;;;;;;;;;;5029073;28;20083;-74
2023/01/11 12:27:30;;;;;;;28.88;5.45;;;;;;;;;;5027194;28;20044;-74
2023/01/11 12:30:07;;;;;;;20.60;4.43;;;;;;;;;;5019184;28;20042;-74
2023/01/11 12:32:52;;;;;;;30.77;5.53;;;;;;;;;;5053584;28;20049;-74
2023/01/11 12:35:21;;;;;;;23.23;4.75;;;;;;;;;;5024222;28;20144;-73
2023/01/11 12:37:58;;;;;;;26.02;5.60;;;;;;;;;;5020489;28;20044;-74
2023/01/11 12:40:29;;;;;;;22.27;5.32;;;;;;;;;;5021159;28;20051;-74
2023/01/11 12:43:07;;;;;;;27.98;6.57;;;;;;;;;;5024666;28;20042;-74
2023/01/11 12:45:49;;;;;;;21.98;6.05;;;;;;;;;;5026194;28;20045;-75
2023/01/11 12:48:21;;;;;;;25.08;5.57;;;;;;;;;;5017760;28;20128;-74
2023/01/11 12:50:47;;;;;;;21.13;5.47;;;;;;;;;;5022245;28;20081;-74
2023/01/11 12:53:21;;;;;;;30.13;6.95;;;;;;;;;;5025657;28;20049;-74
2023/01/11 12:55:47;;;;;;;;;;;;;;;;;;5018721;28;20125;-74
2023/01/11 12:58:16;;;;;;;26.95;5.22;;;;;;;;;;5061480;28;20315;-74
2023/01/11 13:00:44;;;;;;;18.42;4.85;;;;;;;;;;5029349;28;20048;-74
2023/01/11 13:03:23;;;;;;;22.73;6.03;;;;;;;;;;5025533;28;20128;-74
2023/01/11 13:05:56;;;;;;;21.70;4.53;;;;;;;;;;5023961;28;20041;-75
2023/01/11 13:08:22;;;;;;;;;;;;;;;;;;5018058;28;20045;-75
2023/01/11 13:10:57;;;;;;;20.90;4.85;;;;;;;;;;5025700;28;20013;-74
2023/01/11 13:13:33;;;;;;;21.67;4.55;;;;;;;;;;5022574;28;20468;-74
2023/01/11 13:16:12;;;;;;;18.17;5.25;;;;;;;;;;5042767;28;20115;-75
2023/01/11 13:18:58;;;;;;;24.85;5.47;;;;;;;;;;5034397;28;20064;-74
2023/01/11 13:21:32;;;;;;;21.45;5.97;;;;;;;;;;5041281;28;20056;-74
2023/01/11 13:24:03;;;;;;;22.90;5.22;;;;;;;;;;5051392;28;20045;-74
2023/01/11 13:26:35;;;;;;;26.58;5.38;;;;;;;;;;5038933;28;20057;-73
2023/01/11 13:29:12;;;;;;;18.30;5.03;;;;;;;;;;5044633;28;20480;-74
2023/01/11 13:31:39;;;;;;;22.27;4.93;;;;;;;;;;5041741;28;20053;-75
2023/01/11 13:34:15;;;;;;;15.07;3.70;;;;;;;;;;5041006;28;20080;-74
2023/01/11 13:36:50;;;;;;;18.23;4.30;;;;;;;;;;5047442;28;20115;-74
2023/01/11 13:39:18;;;;;;;23.25;4.70;;;;;;;;;;5014646;28;20176;-74
2023/01/11 13:41:46;;;;;;;22.02;4.95;;;;;;;;;;5047073;28;20052;-74
2023/01/11 13:44:18;;;;;;;16.85;4.47;;;;;;;;;;5015866;28;20044;-74
2023/01/11 13:46:57;;;;;;;17.25;4.70;;;;;;;;;;5029467;28;20489;-76
2023/01/11 13:49:44;;;;;;;22.00;5.05;;;;;;;;;;5025311;28;20045;-75
2023/01/11 13:52:14;;;;;;;22.05;4.68;;;;;;;;;;5027440;28;20045;-75
2023/01/11 13:54:59;;;;;;;19.77;4.72;;;;;;;;;;5021605;28;20098;-75
2023/01/11 13:57:31;;;;;;;19.50;4.55;;;;;;;;;;5028646;28;20053;-76
2023/01/11 14:00:01;;;;;;;20.02;4.97;;;;;;;;;;5030128;28;20041;-76
2023/01/11 14:02:32;;;;;;;16.65;4.25;;;;;;;;;;5021215;28;20102;-76
2023/01/11 14:05:06;;;;;;;18.42;5.50;;;;;;;;;;5021180;28;20040;-75
2023/01/11 14:07:59;;;;;;;18.98;4.97;;;;;;;;;;5029530;28;20355;-76
2023/01/11 14:10:37;;;;;;;26.20;5.13;;;;;;;;;;5027689;28;20056;-76
2023/01/11 14:16:27;;;;;;;20.52;5.35;;;;;;;;;;5021650;28;20077;-76
2023/01/11 14:18:56;;;;;;;22.60;5.13;;;;;;;;;;5021836;28;20077;-76
2023/01/11 14:21:26;;;;;;;18.63;4.93;;;;;;;;;;5022082;28;20120;-76
2023/01/11 14:23:53;;;;;;;15.73;3.97;;;;;;;;;;5029874;28;20077;-76
2023/01/11 14:26:49;;;;;;;25.88;5.68;;;;;;;;;;5024358;28;20399;-76
2023/01/11 14:29:18;;;;;;;26.02;5.25;;;;;;;;;;5010298;28;20048;-77
2023/01/11 14:32:07;;;;;;;24.50;5.68;;;;;;;;;;5023803;28;20042;-76
2023/01/11 14:34:52;;;;;;;20.02;4.70;;;;;;;;;;5027547;28;20042;-76
2023/01/11 14:37:30;;;;;;;21.23;4.57;;;;;;;;;;5007295;28;20064;-76
2023/01/11 14:39:56;;;;;;;24.25;5.65;;;;;;;;;;5027372;28;20041;-76
2023/01/11 14:42:22;;;;;;;17.98;4.00;;;;;;;;;;5019710;28;20049;-76
2023/01/11 14:44:58;;;;;;;16.50;4.75;;;;;;;;;;5024353;28;20378;-76
2023/01/11 14:47:47;;;;;;;20.83;5.15;;;;;;;;;;5024992;28;20049;-76
2023/01/11 14:50:13;;;;;;;18.10;4.53;;;;;;;;;;5013271;28;20088;-76
2023/01/11 14:52:40;;;;;;;23.25;5.50;;;;;;;;;;5020742;28;20112;-76
2023/01/11 14:55:13;;;;;;;17.95;4.35;;;;;;;;;;5023534;28;20037;-76
2023/01/11 14:57:40;;;;;;;22.73;5.40;;;;;;;;;;5012730;28;20400;-76
2023/01/11 15:00:19;;;;;;;19.65;6.18;;;;;;;;;;5025181;28;20120;-76
2023/01/11 15:02:45;;;;;;;20.60;4.90;;;;;;;;;;5028230;28;20034;-76
2023/01/11 15:05:30;;;;;;;23.20;4.93;;;;;;;;;;5019693;28;20509;-75